Time;durP1;ratioP1;P1;durP2;ratioP2;P2;SDS_P1;SDS_P2;PMS_P1;PMS_P2;Temp;Humidity;BMP_temperature;BMP_pressure;BME280_temperature;BME280_humidity;BME280_pressure;Samples;Min_cycle;Max_cycle;Signal;HPM_P1;HPM_P2
2022/06/27 00:00:35;;;;;;;12.52;10.80;;;18.20;99.90;;;;;;5040058;28;20444;-59
2022/06/27 00:03:01;;;;;;;14.88;11.50;;;18.20;99.90;;;;;;5041707;28;20517;-59
2022/06/27 00:05:27;;;;;;;15.93;11.52;;;18.20;99.90;;;;;;5040660;28;20072;-59
2022/06/27 00:07:52;;;;;;;13.38;10.45;;;18.20;99.90;;;;;;5041884;28;20052;-59
2022/06/27 00:10:18;;;;;;;14.57;10.50;;;18.30;99.90;;;;;;5040171;28;20123;-59
2022/06/27 00:12:44;;;;;;;12.68;9.82;;;18.20;99.90;;;;;;5041877;28;20077;-59
2022/06/27 00:15:10;;;;;;;15.00;10.15;;;18.20;99.90;;;;;;5040482;28;20231;-59
2022/06/27 00:17:36;;;;;;;13.57;9.70;;;18.20;99.90;;;;;;5039943;28;20052;-60
2022/06/27 00:20:02;;;;;;;12.77;9.38;;;18.20;99.90;;;;;;5041218;28;20064;-56
2022/06/27 00:22:28;;;;;;;13.23;9.52;;;18.20;99.90;;;;;;5025881;28;20046;-60
2022/06/27 00:24:54;;;;;;;11.98;9.15;;;18.20;99.90;;;;;;5021734;28;20100;-60
2022/06/27 00:27:19;;;;;;;10.95;9.50;;;18.20;99.90;;;;;;5020187;28;20046;-60
2022/06/27 00:29:45;;;;;;;15.20;9.73;;;18.20;99.90;;;;;;5021834;28;20046;-60
2022/06/27 00:32:11;;;;;;;10.48;8.55;;;18.10;99.90;;;;;;5020299;28;20050;-59
2022/06/27 00:34:37;;;;;;;11.70;8.73;;;18.20;99.90;;;;;;5021373;28;20117;-60
2022/06/27 00:37:03;;;;;;;12.98;9.23;;;18.20;99.90;;;;;;5020954;28;20527;-60
2022/06/27 00:39:29;;;;;;;12.20;8.90;;;18.20;99.90;;;;;;5020456;28;20072;-60
2022/06/27 00:41:55;;;;;;;11.93;8.93;;;18.20;99.90;;;;;;5021150;28;20401;-59
2022/06/27 00:44:35;;;;;;;12.18;9.85;;;18.20;99.90;;;;;;5019746;28;20038;-60
2022/06/27 00:47:02;;;;;;;12.68;8.70;;;18.10;99.90;;;;;;5021290;28;20045;-61
2022/06/27 00:49:28;;;;;;;11.65;8.50;;;18.10;99.90;;;;;;5020213;28;20046;-59
2022/06/27 00:51:54;;;;;;;14.35;9.10;;;18.10;99.90;;;;;;5029388;28;20520;-60
2022/06/27 00:54:22;;;;;;;10.98;8.68;;;18.00;99.90;;;;;;5040484;28;20049;-60
2022/06/27 00:56:48;;;;;;;11.30;9.35;;;18.10;99.90;;;;;;5039722;28;20054;-60
2022/06/27 00:59:14;;;;;;;11.48;8.85;;;17.90;99.90;;;;;;5040980;28;20053;-60
2022/06/27 01:01:40;;;;;;;14.80;8.85;;;17.90;99.90;;;;;;5039107;28;20162;-61
2022/06/27 01:04:06;;;;;;;12.32;9.70;;;17.90;99.90;;;;;;5040960;28;20049;-58
2022/06/27 01:06:32;;;;;;;13.38;9.43;;;17.90;99.90;;;;;;5039865;28;20033;-59
2022/06/27 01:08:58;;;;;;;11.80;9.38;;;17.90;99.90;;;;;;5040231;28;20050;-59
2022/06/27 01:11:24;;;;;;;12.35;9.05;;;18.00;99.90;;;;;;5039950;28;20541;-60
2022/06/27 01:13:49;;;;;;;12.88;9.93;;;17.90;99.90;;;;;;5039083;28;20048;-60
2022/06/27 01:16:15;;;;;;;13.00;9.25;;;17.80;99.90;;;;;;5040591;28;20060;-60
2022/06/27 01:18:42;;;;;;;12.35;8.95;;;17.80;99.90;;;;;;5038821;28;20101;-60
2022/06/27 01:21:11;;;;;;;12.65;9.18;;;17.80;99.90;;;;;;5037053;28;20037;-60
2022/06/27 01:23:36;;;;;;;12.70;9.57;;;17.80;99.90;;;;;;5019391;28;20103;-59
2022/06/27 01:26:03;;;;;;;14.38;8.93;;;17.80;99.90;;;;;;5020302;28;20089;-60
2022/06/27 01:28:29;;;;;;;11.63;8.85;;;17.70;99.90;;;;;;5020139;28;20048;-59
2022/06/27 01:30:55;;;;;;;10.68;7.82;;;17.60;99.90;;;;;;5019554;28;20080;-60
2022/06/27 01:33:20;;;;;;;13.18;8.90;;;17.70;99.90;;;;;;5020507;28;20037;-60
2022/06/27 01:35:46;;;;;;;13.68;10.27;;;17.40;99.90;;;;;;5019166;28;20046;-59
2022/06/27 01:38:12;;;;;;;14.90;11.95;;;17.30;99.90;;;;;;5020376;28;20038;-59
2022/06/27 01:40:39;;;;;;;15.63;12.57;;;17.20;99.90;;;;;;5018970;28;20057;-60
2022/06/27 01:43:05;;;;;;;14.10;12.02;;;17.20;99.90;;;;;;5020167;28;20101;-60
2022/06/27 01:45:32;;;;;;;16.85;13.75;;;17.20;99.90;;;;;;5019422;28;20042;-59
2022/06/27 01:47:58;;;;;;;18.75;13.25;;;17.30;99.90;;;;;;5019283;28;20080;-60
2022/06/27 01:50:25;;;;;;;17.30;14.07;;;17.30;99.90;;;;;;5019948;28;20041;-59
2022/06/27 01:52:52;;;;;;;19.27;13.35;;;17.30;99.90;;;;;;5036530;28;20089;-59
2022/06/27 01:55:21;;;;;;;18.25;14.63;;;17.30;99.90;;;;;;5039930;28;20533;-59
2022/06/27 01:57:47;;;;;;;16.63;14.15;;;17.40;99.90;;;;;;5038539;28;20049;-59
2022/06/27 02:00:14;;;;;;;20.05;15.93;;;17.20;99.90;;;;;;5039788;28;20048;-60
2022/06/27 02:02:44;;;;;;;16.92;14.88;;;17.20;99.90;;;;;;5039298;28;20046;-60
2022/06/27 02:05:10;;;;;;;18.33;15.85;;;17.30;99.90;;;;;;5038477;28;20045;-59
2022/06/27 02:07:37;;;;;;;19.75;15.38;;;17.30;99.90;;;;;;5039814;28;20551;-58
2022/06/27 02:10:04;;;;;;;17.70;14.43;;;17.40;99.90;;;;;;5037901;28;20064;-59
2022/06/27 02:12:29;;;;;;;17.10;13.70;;;17.20;99.90;;;;;;5040026;28;20045;-59
2022/06/27 02:14:55;;;;;;;19.45;16.30;;;17.20;99.90;;;;;;5038101;28;20041;-60
2022/06/27 02:17:22;;;;;;;17.02;14.77;;;17.20;99.90;;;;;;5039629;28;20034;-60
2022/06/27 02:19:49;;;;;;;18.15;14.25;;;17.10;99.90;;;;;;5038926;28;20041;-59
2022/06/27 02:22:15;;;;;;;19.40;14.90;;;17.10;99.90;;;;;;5026066;28;20046;-60
2022/06/27 02:24:42;;;;;;;18.70;16.05;;;17.10;99.90;;;;;;5019746;28;20050;-59
2022/06/27 02:27:09;;;;;;;19.88;16.83;;;17.20;99.90;;;;;;5018358;28;20072;-59
2022/06/27 02:29:36;;;;;;;17.98;15.98;;;17.20;99.90;;;;;;5020894;28;20056;-59
2022/06/27 02:32:02;;;;;;;21.45;17.50;;;17.30;99.90;;;;;;5022545;28;20042;-60
2022/06/27 02:34:28;;;;;;;18.95;15.10;;;17.30;99.90;;;;;;5023457;28;20084;-60
2022/06/27 02:36:56;;;;;;;20.00;16.88;;;17.40;99.90;;;;;;5023297;28;20046;-59
2022/06/27 02:39:24;;;;;;;21.95;17.17;;;17.40;99.90;;;;;;5022920;28;20056;-59
2022/06/27 02:41:53;;;;;;;22.77;17.48;;;17.40;99.90;;;;;;5023756;28;20045;-59
2022/06/27 02:44:21;;;;;;;20.45;16.67;;;17.50;99.90;;;;;;5021890;28;20042;-59
2022/06/27 02:46:49;;;;;;;20.92;16.63;;;17.50;99.90;;;;;;5023971;28;20073;-59
2022/06/27 02:49:15;;;;;;;20.92;17.70;;;17.50;99.90;;;;;;5022172;28;20081;-58
2022/06/27 02:52:05;;;;;;;21.02;17.83;;;17.50;99.90;;;;;;5031583;28;20048;-59
2022/06/27 02:54:53;;;;;;;19.35;16.75;;;17.50;99.90;;;;;;5025273;28;20055;-59
2022/06/27 02:57:40;;;;;;;22.25;18.10;;;17.50;99.90;;;;;;5040124;28;20049;-59
2022/06/27 03:00:07;;;;;;;23.17;18.00;;;17.40;99.90;;;;;;5043098;28;20056;-59
2022/06/27 03:02:35;;;;;;;21.33;17.92;;;17.50;99.90;;;;;;5042385;28;20029;-59
2022/06/27 03:05:01;;;;;;;17.65;15.13;;;17.50;99.90;;;;;;5042306;28;20049;-60
2022/06/27 03:07:27;;;;;;;17.65;15.50;;;17.40;99.90;;;;;;5041530;28;20033;-59
2022/06/27 03:09:53;;;;;;;21.00;16.75;;;17.30;99.90;;;;;;5040828;28;20083;-60
2022/06/27 03:12:18;;;;;;;20.63;17.00;;;17.30;99.90;;;;;;5041677;28;20698;-59
2022/06/27 03:14:44;;;;;;;19.85;17.75;;;17.30;99.90;;;;;;5040250;28;20033;-60
2022/06/27 03:17:10;;;;;;;20.25;17.40;;;17.40;99.90;;;;;;5041668;28;20107;-60
2022/06/27 03:19:35;;;;;;;20.92;17.27;;;17.40;99.90;;;;;;5040660;28;20041;-60
2022/06/27 03:22:01;;;;;;;17.83;14.60;;;17.40;99.90;;;;;;5029962;28;20077;-59
2022/06/27 03:24:27;;;;;;;19.90;17.38;;;17.40;99.90;;;;;;5021258;28;20042;-59
2022/06/27 03:26:52;;;;;;;20.20;17.45;;;17.50;99.90;;;;;;5020225;28;20048;-58
2022/06/27 03:29:18;;;;;;;21.50;17.85;;;17.40;99.90;;;;;;5021720;28;20069;-58
2022/06/27 03:31:44;;;;;;;17.17;15.35;;;17.50;99.90;;;;;;5019890;28;20065;-57
2022/06/27 03:34:11;;;;;;;21.27;18.52;;;17.40;99.90;;;;;;5020366;28;20542;-59
2022/06/27 03:36:38;;;;;;;20.02;18.02;;;17.40;99.90;;;;;;5020450;28;20589;-59
2022/06/27 03:39:04;;;;;;;20.67;18.35;;;17.40;99.90;;;;;;5020773;28;20057;-59
2022/06/27 03:41:30;;;;;;;19.58;17.05;;;17.40;99.90;;;;;;5020778;28;20109;-59
2022/06/27 03:43:55;;;;;;;20.95;18.10;;;17.40;99.90;;;;;;5019882;28;20033;-59
2022/06/27 03:46:21;;;;;;;19.85;17.80;;;17.40;99.90;;;;;;5021589;28;20046;-59
2022/06/27 03:51:31;;;;;;;20.00;17.90;;;17.40;99.90;;;;;;5028149;28;20051;-59
2022/06/27 03:53:56;;;;;;;21.05;17.10;;;17.40;99.90;;;;;;5040145;28;20101;-59
2022/06/27 03:56:22;;;;;;;19.67;17.58;;;17.40;99.90;;;;;;5040234;28;20041;-59
2022/06/27 03:58:48;;;;;;;19.90;17.58;;;17.40;99.90;;;;;;5040894;28;20059;-60
2022/06/27 04:01:13;;;;;;;19.13;16.98;;;17.40;99.90;;;;;;5039460;28;20045;-59
2022/06/27 04:03:39;;;;;;;19.45;17.15;;;17.30;99.90;;;;;;5041281;28;20041;-59
2022/06/27 04:06:05;;;;;;;20.55;17.48;;;17.40;99.90;;;;;;5039152;28;20045;-60
2022/06/27 04:08:30;;;;;;;18.85;15.38;;;17.40;99.90;;;;;;5040643;28;20048;-59
2022/06/27 04:10:56;;;;;;;19.23;15.60;;;17.40;99.90;;;;;;5002461;28;1089959;-59
2022/06/27 04:13:22;;;;;;;18.65;15.13;;;17.40;99.90;;;;;;5041186;28;20054;-59
2022/06/27 04:15:48;;;;;;;17.65;15.70;;;17.40;99.90;;;;;;5039737;28;20037;-59
2022/06/27 04:18:13;;;;;;;19.73;16.63;;;17.40;99.90;;;;;;5040483;28;20041;-60
2022/06/27 04:20:40;;;;;;;20.00;16.42;;;17.50;99.90;;;;;;5041690;28;20097;-60
2022/06/27 04:23:06;;;;;;;20.50;16.42;;;17.50;99.90;;;;;;5019044;28;20030;-61
2022/06/27 04:25:32;;;;;;;18.15;15.27;;;17.50;99.90;;;;;;5021786;28;20052;-59
2022/06/27 04:27:58;;;;;;;20.00;16.02;;;17.50;99.90;;;;;;5020682;28;20054;-59
2022/06/27 04:30:25;;;;;;;18.25;15.48;;;17.50;99.90;;;;;;5020895;28;20184;-60
2022/06/27 04:32:51;;;;;;;19.63;16.38;;;17.40;99.90;;;;;;5021328;28;20046;-60
2022/06/27 04:35:17;;;;;;;19.52;16.02;;;17.40;99.90;;;;;;5020301;28;20038;-60
2022/06/27 04:37:44;;;;;;;19.63;14.73;;;17.40;99.90;;;;;;5020192;28;20149;-60
2022/06/27 04:40:11;;;;;;;19.77;15.68;;;17.60;99.90;;;;;;5019964;28;20053;-60
2022/06/27 04:42:37;;;;;;;22.13;16.83;;;17.50;99.90;;;;;;5021519;28;20045;-60
2022/06/27 04:45:06;;;;;;;21.67;18.95;;;17.50;99.90;;;;;;5019938;28;20117;-59
2022/06/27 04:47:32;;;;;;;24.20;19.15;;;17.60;99.90;;;;;;5021011;28;20045;-60
2022/06/27 04:49:59;;;;;;;20.30;15.75;;;17.70;99.90;;;;;;5020720;28;20049;-60
2022/06/27 04:52:24;;;;;;;23.40;19.25;;;17.60;99.90;;;;;;5033439;28;20057;-60
2022/06/27 04:54:50;;;;;;;24.27;18.02;;;17.60;99.90;;;;;;5041131;28;20076;-60
2022/06/27 04:57:16;;;;;;;23.55;19.60;;;17.60;99.90;;;;;;5039652;28;20414;-59
2022/06/27 04:59:42;;;;;;;23.60;19.23;;;17.60;99.90;;;;;;5041150;28;20509;-60
2022/06/27 05:02:08;;;;;;;22.15;17.85;;;17.60;99.90;;;;;;5039926;28;20053;-60
2022/06/27 05:04:34;;;;;;;21.88;18.98;;;17.60;99.90;;;;;;5040337;28;20099;-60
2022/06/27 05:06:59;;;;;;;23.40;20.30;;;17.60;99.90;;;;;;5040280;28;20049;-60
2022/06/27 05:09:26;;;;;;;22.65;19.88;;;17.60;99.90;;;;;;5039370;28;20096;-59
2022/06/27 05:11:54;;;;;;;23.67;18.15;;;17.60;99.90;;;;;;5040652;28;20039;-60
2022/06/27 05:14:20;;;;;;;20.98;18.13;;;17.60;99.90;;;;;;5038950;28;20053;-60
2022/06/27 05:16:45;;;;;;;25.00;20.60;;;17.60;99.90;;;;;;5041017;28;20049;-60
2022/06/27 05:19:12;;;;;;;23.08;18.55;;;17.70;99.90;;;;;;5039019;28;20142;-59
2022/06/27 05:21:38;;;;;;;22.27;17.27;;;17.70;99.90;;;;;;5032498;28;20046;-60
2022/06/27 05:24:04;;;;;;;20.75;16.90;;;17.70;99.90;;;;;;5020176;28;20062;-59
2022/06/27 05:26:29;;;;;;;18.73;15.98;;;17.60;99.90;;;;;;5019586;28;20046;-60
2022/06/27 05:28:55;;;;;;;16.88;13.52;;;17.60;99.90;;;;;;5020617;28;20060;-61
2022/06/27 05:31:21;;;;;;;17.83;15.38;;;17.60;99.90;;;;;;5019179;28;20046;-60
2022/06/27 05:33:47;;;;;;;14.77;12.38;;;17.70;99.90;;;;;;5019289;28;20046;-59
2022/06/27 05:36:13;;;;;;;15.05;11.88;;;17.70;99.90;;;;;;5019155;28;20041;-59
2022/06/27 05:38:39;;;;;;;13.32;10.60;;;17.70;99.90;;;;;;5020303;28;20179;-59
2022/06/27 05:41:05;;;;;;;14.57;9.82;;;17.60;99.90;;;;;;5019847;28;20057;-55
2022/06/27 05:43:31;;;;;;;14.10;10.80;;;17.70;99.90;;;;;;5019357;28;20049;-59
2022/06/27 05:45:58;;;;;;;14.52;11.13;;;17.70;99.90;;;;;;5020246;28;20057;-59
2022/06/27 05:48:25;;;;;;;13.23;8.82;;;17.70;99.90;;;;;;5018937;28;20060;-59
2022/06/27 05:50:50;;;;;;;16.52;10.25;;;17.80;99.90;;;;;;5021760;28;20061;-58
2022/06/27 05:53:16;;;;;;;16.05;8.90;;;17.80;99.90;;;;;;5038435;28;20053;-59
2022/06/27 05:55:46;;;;;;;13.98;10.35;;;17.80;99.90;;;;;;5039948;28;20047;-58
2022/06/27 05:58:12;;;;;;;10.52;8.27;;;17.80;99.90;;;;;;5037953;28;20049;-58
2022/06/27 06:00:38;;;;;;;12.38;8.98;;;17.90;99.90;;;;;;5038787;28;20049;-58
2022/06/27 06:03:04;;;;;;;10.80;8.95;;;17.90;99.90;;;;;;5038412;28;20136;-58
2022/06/27 06:05:31;;;;;;;11.88;8.35;;;17.90;99.90;;;;;;5035175;28;20049;-59
2022/06/27 06:08:04;;;;;;;11.50;8.55;;;18.00;99.90;;;;;;5036741;28;20457;-58
2022/06/27 06:10:33;;;;;;;12.13;8.00;;;18.00;99.90;;;;;;5034893;28;20060;-58
2022/06/27 06:13:01;;;;;;;10.80;7.90;;;18.10;99.90;;;;;;5036417;28;20473;-58
2022/06/27 06:15:29;;;;;;;11.32;8.38;;;18.10;99.90;;;;;;5035113;28;20045;-58
2022/06/27 06:17:55;;;;;;;13.95;8.75;;;18.10;99.90;;;;;;5035578;28;20054;-58
2022/06/27 06:20:22;;;;;;;11.45;7.57;;;18.20;99.90;;;;;;5036636;28;20057;-58
2022/06/27 06:22:48;;;;;;;11.20;7.70;;;18.20;99.90;;;;;;5017795;28;20145;-59
2022/06/27 06:25:13;;;;;;;11.70;7.57;;;18.20;99.90;;;;;;5016911;28;20077;-58
2022/06/27 06:27:40;;;;;;;11.68;9.27;;;18.10;99.90;;;;;;5014915;28;20096;-58
2022/06/27 06:30:07;;;;;;;11.65;8.52;;;18.10;99.90;;;;;;5016443;28;20097;-58
2022/06/27 06:32:36;;;;;;;12.27;8.43;;;18.10;99.90;;;;;;5016047;28;20058;-58
2022/06/27 06:35:02;;;;;;;11.07;7.75;;;18.10;99.90;;;;;;5015501;28;20076;-58
2022/06/27 06:37:29;;;;;;;9.93;7.20;;;18.00;99.90;;;;;;5016618;28;20053;-58
2022/06/27 06:39:55;;;;;;;10.35;7.38;;;18.00;99.90;;;;;;5014490;28;20068;-58
2022/06/27 06:42:21;;;;;;;11.65;7.53;;;18.00;99.90;;;;;;5016673;28;20919;-58
2022/06/27 06:44:46;;;;;;;10.98;7.60;;;18.00;99.90;;;;;;5014974;28;20042;-58
2022/06/27 06:47:17;;;;;;;9.23;7.18;;;18.10;99.90;;;;;;5014916;28;20042;-57
2022/06/27 06:49:43;;;;;;;9.60;7.50;;;18.00;99.90;;;;;;5015694;28;20062;-56
2022/06/27 06:52:09;;;;;;;8.27;5.82;;;17.90;99.90;;;;;;5027217;28;20075;-58
2022/06/27 06:54:37;;;;;;;8.88;6.25;;;17.90;99.90;;;;;;5036243;28;20108;-58
2022/06/27 06:57:03;;;;;;;12.00;6.68;;;18.00;99.90;;;;;;5034558;28;20109;-56
2022/06/27 06:59:29;;;;;;;10.25;7.38;;;18.00;99.90;;;;;;5036378;28;20041;-58
2022/06/27 07:01:55;;;;;;;10.40;7.07;;;17.90;99.90;;;;;;5034658;28;20045;-58
2022/06/27 07:04:20;;;;;;;12.27;6.65;;;17.90;99.90;;;;;;5035496;28;20057;-60
2022/06/27 07:06:47;;;;;;;8.70;6.53;;;17.90;99.90;;;;;;5035566;28;20057;-58
2022/06/27 07:09:12;;;;;;;9.70;6.22;;;17.90;99.90;;;;;;5035396;28;20083;-58
2022/06/27 07:11:40;;;;;;;9.57;6.75;;;18.00;99.90;;;;;;5035803;28;20165;-58
2022/06/27 07:14:06;;;;;;;9.75;6.63;;;18.00;99.90;;;;;;5034366;28;20058;-58
2022/06/27 07:16:32;;;;;;;9.45;6.40;;;18.00;99.90;;;;;;5036517;28;20109;-57
2022/06/27 07:19:00;;;;;;;9.68;6.65;;;17.90;99.90;;;;;;5038265;28;20057;-58
2022/06/27 07:21:28;;;;;;;10.82;8.15;;;18.00;99.90;;;;;;5033317;28;20542;-58
2022/06/27 07:23:55;;;;;;;12.75;6.88;;;18.00;99.90;;;;;;5018941;28;20057;-58
2022/06/27 07:26:22;;;;;;;9.70;6.95;;;18.00;99.90;;;;;;5018816;28;20046;-58
2022/06/27 07:28:49;;;;;;;10.70;7.43;;;18.00;99.90;;;;;;5019133;28;20061;-58
2022/06/27 07:31:16;;;;;;;10.57;7.90;;;18.10;99.90;;;;;;5018114;28;20046;-58
2022/06/27 07:33:43;;;;;;;9.90;7.57;;;18.20;99.90;;;;;;5019684;28;20038;-59
2022/06/27 07:36:14;;;;;;;12.98;7.28;;;18.20;99.90;;;;;;5018313;28;20086;-58
2022/06/27 07:38:41;;;;;;;10.65;8.38;;;18.20;99.90;;;;;;5019217;28;20058;-58
2022/06/27 07:41:09;;;;;;;10.07;7.57;;;18.10;99.90;;;;;;5018152;28;20061;-58
2022/06/27 07:43:35;;;;;;;10.00;6.80;;;18.10;99.90;;;;;;5018111;28;20176;-58
2022/06/27 07:46:01;;;;;;;9.57;6.32;;;18.00;99.90;;;;;;5019200;28;20077;-58
2022/06/27 07:48:29;;;;;;;9.52;7.28;;;18.00;99.90;;;;;;5017858;28;20131;-57
2022/06/27 07:50:56;;;;;;;8.23;5.75;;;18.00;99.90;;;;;;5021235;28;20046;-57
2022/06/27 07:53:22;;;;;;;7.72;5.97;;;18.00;99.90;;;;;;5037119;28;20095;-57
2022/06/27 07:55:52;;;;;;;9.20;5.35;;;18.00;99.90;;;;;;5038710;28;20084;-58
2022/06/27 07:58:30;;;;;;;11.50;6.60;;;18.00;99.90;;;;;;5038411;28;20052;-58
2022/06/27 08:00:58;;;;;;;8.95;6.43;;;18.00;99.90;;;;;;5037340;28;20429;-58
2022/06/27 08:03:37;;;;;;;9.70;5.85;;;18.00;99.90;;;;;;5038568;28;20046;-58
2022/06/27 08:06:09;;;;;;;8.50;5.50;;;18.00;99.90;;;;;;5037341;28;20134;-58
2022/06/27 08:08:41;;;;;;;8.07;5.43;;;17.90;99.90;;;;;;5038298;28;20053;-58
2022/06/27 08:11:10;;;;;;;8.75;5.63;;;18.10;99.90;;;;;;5040064;28;20147;-58
2022/06/27 08:13:37;;;;;;;8.73;5.97;;;18.20;99.90;;;;;;5040476;28;20052;-58
2022/06/27 08:16:05;;;;;;;10.45;6.10;;;18.30;99.90;;;;;;5041557;28;20056;-58
2022/06/27 08:18:31;;;;;;;8.13;5.75;;;18.30;99.90;;;;;;5040470;28;20056;-58
2022/06/27 08:21:00;;;;;;;10.02;5.43;;;18.40;99.90;;;;;;5039680;28;20045;-58
2022/06/27 08:23:27;;;;;;;9.13;5.70;;;18.50;99.90;;;;;;5020518;28;20034;-58
2022/06/27 08:25:54;;;;;;;8.65;5.47;;;18.50;99.90;;;;;;5021424;28;20082;-57
2022/06/27 08:28:20;;;;;;;8.30;5.28;;;18.60;99.90;;;;;;5019940;28;20042;-57
2022/06/27 08:30:47;;;;;;;9.40;5.40;;;18.60;99.90;;;;;;5020001;28;20049;-58
2022/06/27 08:33:13;;;;;;;7.78;5.00;;;18.70;99.90;;;;;;5021735;28;20042;-58
2022/06/27 08:35:47;;;;;;;7.00;4.80;;;18.70;99.90;;;;;;5020063;28;20061;-59
2022/06/27 08:38:15;;;;;;;8.02;4.88;;;18.70;99.90;;;;;;5021811;28;20120;-58
2022/06/27 08:40:41;;;;;;;7.28;4.45;;;18.70;99.90;;;;;;5020251;28;20038;-57
2022/06/27 08:43:09;;;;;;;7.85;4.60;;;18.70;99.90;;;;;;5020959;28;20052;-58
2022/06/27 08:45:35;;;;;;;6.85;4.20;;;18.50;99.90;;;;;;5024692;28;20048;-58
2022/06/27 08:48:07;;;;;;;7.20;4.53;;;18.60;99.90;;;;;;5028595;28;20034;-58
2022/06/27 08:50:34;;;;;;;7.25;5.30;;;18.70;99.90;;;;;;5031839;28;20042;-59
2022/06/27 08:53:00;;;;;;;7.70;5.65;;;18.70;99.90;;;;;;5039056;28;20061;-58
2022/06/27 08:55:26;;;;;;;7.95;5.70;;;18.60;99.90;;;;;;5041117;28;20041;-58
2022/06/27 08:57:51;;;;;;;8.68;5.88;;;18.60;99.90;;;;;;5039956;28;20056;-57
2022/06/27 09:00:18;;;;;;;10.88;6.28;;;18.50;99.90;;;;;;5039789;28;20501;-58
2022/06/27 09:02:44;;;;;;;9.38;5.90;;;18.50;99.90;;;;;;5032800;28;20037;-59
2022/06/27 09:05:21;;;;;;;8.98;5.97;;;18.60;99.90;;;;;;5030213;28;20402;-58
2022/06/27 09:07:52;;;;;;;8.02;5.95;;;18.70;99.90;;;;;;5030354;28;20048;-58
2022/06/27 09:10:37;;;;;;;10.30;6.10;;;18.80;99.90;;;;;;5032699;28;20422;-59
2022/06/27 09:13:08;;;;;;;8.77;5.55;;;18.80;99.90;;;;;;5039959;28;20452;-58
2022/06/27 09:15:37;;;;;;;;;;;18.90;99.90;;;;;;5040515;28;20045;-58
2022/06/27 09:18:06;;;;;;;8.43;5.25;;;19.10;99.90;;;;;;5039088;28;19928;-58
2022/06/27 09:21:00;;;;;;;8.13;5.35;;;19.40;99.90;;;;;;5040593;28;20131;-59
2022/06/27 09:23:50;;;;;;;7.10;4.20;;;19.50;99.90;;;;;;5019179;28;20092;-59
2022/06/27 09:26:35;;;;;;;8.13;4.63;;;19.50;99.90;;;;;;5019450;28;20060;-58
2022/06/27 09:29:08;;;;;;;8.18;5.22;;;19.50;99.90;;;;;;5020557;28;20050;-58
2022/06/27 09:31:42;;;;;;;9.35;5.15;;;19.50;99.90;;;;;;5018717;28;20065;-58
2022/06/27 09:34:17;;;;;;;7.35;4.70;;;19.30;99.90;;;;;;5020185;28;20077;-58
2022/06/27 09:36:44;;;;;;;7.10;4.15;;;19.30;99.90;;;;;;5019755;28;20046;-58
2022/06/27 09:39:24;;;;;;;6.97;3.60;;;19.20;99.90;;;;;;5018832;28;20082;-58
2022/06/27 09:42:01;;;;;;;6.70;3.20;;;19.20;99.90;;;;;;5020085;28;20034;-58
2022/06/27 09:44:29;;;;;;;6.20;3.45;;;19.00;99.90;;;;;;5018472;28;20057;-58
2022/06/27 09:47:16;;;;;;;6.80;3.75;;;19.10;99.90;;;;;;5020237;28;20053;-59
2022/06/27 09:49:46;;;;;;;7.20;3.75;;;19.10;99.90;;;;;;5019450;28;20053;-58
2022/06/27 09:52:14;;;;;;;7.50;3.50;;;19.00;99.90;;;;;;5030974;28;20405;-58
2022/06/27 09:54:41;;;;;;;7.85;3.45;;;19.20;99.90;;;;;;5039673;28;20097;-58
2022/06/27 09:57:08;;;;;;;6.55;3.53;;;19.10;99.90;;;;;;5031234;28;20034;-59
2022/06/27 09:59:36;;;;;;;6.63;3.30;;;19.10;99.90;;;;;;5020375;28;20056;-58
2022/06/27 10:02:04;;;;;;;6.50;3.83;;;19.00;99.90;;;;;;5018587;28;20037;-58
2022/06/27 10:04:31;;;;;;;6.50;3.88;;;19.00;99.90;;;;;;5019114;28;20049;-59
2022/06/27 10:07:00;;;;;;;6.70;3.70;;;19.00;99.90;;;;;;5019261;28;20117;-58
2022/06/27 10:09:26;;;;;;;7.47;3.60;;;19.10;99.90;;;;;;5018582;28;20108;-59
2022/06/27 10:12:27;;;;;;;7.57;3.80;;;19.00;99.90;;;;;;5019838;28;20061;-58
2022/06/27 10:15:11;;;;;;;6.60;3.67;;;19.00;99.90;;;;;;5018068;28;20077;-59
2022/06/27 10:17:43;;;;;;;5.95;3.65;;;19.00;99.90;;;;;;5018617;28;20052;-59
2022/06/27 10:20:21;;;;;;;7.10;3.75;;;19.10;99.90;;;;;;5018961;28;20056;-58
2022/06/27 10:23:13;;;;;;;7.45;3.45;;;18.90;99.90;;;;;;5034703;28;20101;-59
2022/06/27 10:25:44;;;;;;;6.13;3.53;;;19.00;99.90;;;;;;5032851;28;20046;-59
2022/06/27 10:30:36;;;;;;;6.97;3.75;;;19.30;99.90;;;;;;5038118;28;20080;-58
2022/06/27 10:33:25;;;;;;;7.22;3.30;;;19.40;99.90;;;;;;5039476;28;20041;-60
2022/06/27 10:38:26;;;;;;;;;;;19.40;99.90;;;;;;5039749;28;20107;-59
2022/06/27 10:40:53;;;;;;;8.30;3.03;;;19.50;99.90;;;;;;5038241;28;20008;-59
2022/06/27 10:43:38;;;;;;;7.35;3.60;;;19.40;99.90;;;;;;5038323;28;20042;-59
2022/06/27 10:46:09;;;;;;;5.95;3.00;;;19.40;99.90;;;;;;5039203;28;20045;-59
2022/06/27 10:48:36;;;;;;;5.97;3.20;;;19.30;99.90;;;;;;5037964;28;20069;-58
2022/06/27 10:51:21;;;;;;;6.40;3.78;;;19.30;99.90;;;;;;5040450;28;20044;-58
2022/06/27 10:53:51;;;;;;;7.05;3.55;;;19.20;99.90;;;;;;5042409;28;20052;-59
2022/06/27 10:56:31;;;;;;;7.22;3.47;;;19.10;99.90;;;;;;5042343;28;20045;-58
2022/06/27 10:59:02;;;;;;;6.18;3.63;;;19.00;99.90;;;;;;5042865;28;20045;-60
2022/06/27 11:01:29;;;;;;;7.72;3.67;;;19.00;99.90;;;;;;5041501;28;20045;-59
2022/06/27 11:03:55;;;;;;;6.45;3.75;;;19.00;99.90;;;;;;5042853;28;20057;-58
2022/06/27 11:06:21;;;;;;;7.35;4.15;;;19.20;99.90;;;;;;5041173;28;20034;-59
2022/06/27 11:08:50;;;;;;;7.97;4.35;;;19.40;99.90;;;;;;5042075;28;20047;-58
2022/06/27 11:11:18;;;;;;;7.80;4.63;;;19.40;99.90;;;;;;5041368;28;20064;-59
2022/06/27 11:13:47;;;;;;;8.18;4.63;;;19.50;99.90;;;;;;5040890;28;20076;-57
2022/06/27 11:16:16;;;;;;;6.65;4.30;;;19.50;99.90;;;;;;5042128;28;20073;-59
2022/06/27 11:18:52;;;;;;;7.38;4.95;;;19.70;99.90;;;;;;5041265;28;20060;-58
2022/06/27 11:21:23;;;;;;;11.15;5.40;;;19.70;99.90;;;;;;5035717;28;20050;-58
2022/06/27 11:23:50;;;;;;;7.88;5.35;;;19.80;99.90;;;;;;5020576;28;20050;-59
2022/06/27 11:26:18;;;;;;;7.53;5.30;;;19.80;99.90;;;;;;5019618;28;20042;-59
2022/06/27 11:34:13;;;;;;;9.77;5.60;;;19.80;99.90;;;;;;5022206;28;20053;-58
2022/06/27 11:36:39;;;;;;;7.32;4.90;;;19.90;99.90;;;;;;5021405;28;20132;-59
2022/06/27 11:39:06;;;;;;;9.25;4.88;;;20.00;99.90;;;;;;5021416;28;20050;-58
2022/06/27 11:41:37;;;;;;;7.93;4.85;;;19.80;99.90;;;;;;5021849;28;20038;-58
2022/06/27 11:44:10;;;;;;;9.05;5.78;;;19.90;99.90;;;;;;5020948;28;20050;-58
2022/06/27 11:46:49;;;;;;;8.35;5.57;;;19.80;99.90;;;;;;5022015;28;20525;-59
2022/06/27 11:49:29;;;;;;;7.35;4.90;;;19.90;99.90;;;;;;5019855;28;20064;-58
2022/06/27 11:52:00;;;;;;;9.27;5.78;;;20.00;99.90;;;;;;5031305;28;20057;-58
2022/06/27 11:54:35;;;;;;;8.02;5.47;;;20.00;99.90;;;;;;5042043;28;20096;-58
2022/06/27 11:57:01;;;;;;;7.80;4.97;;;20.00;99.90;;;;;;5040466;28;20044;-58
2022/06/27 11:59:26;;;;;;;8.10;5.28;;;20.10;99.90;;;;;;5041931;28;20045;-58
2022/06/27 12:01:56;;;;;;;8.48;5.65;;;20.10;99.90;;;;;;5040381;28;20398;-58
2022/06/27 12:04:30;;;;;;;8.05;5.82;;;20.10;99.90;;;;;;5041475;28;20049;-58
2022/06/27 12:06:58;;;;;;;9.50;5.55;;;20.10;99.90;;;;;;5041207;28;20046;-58
2022/06/27 12:09:27;;;;;;;9.20;5.88;;;20.30;99.90;;;;;;5040190;28;20057;-58
2022/06/27 12:12:05;;;;;;;9.93;5.60;;;20.40;99.90;;;;;;5041508;28;20034;-58
2022/06/27 12:14:42;;;;;;;9.30;6.38;;;20.40;99.90;;;;;;5040175;28;20491;-58
2022/06/27 12:17:08;;;;;;;8.38;6.07;;;20.10;99.90;;;;;;5041118;28;20041;-58
2022/06/27 12:19:34;;;;;;;9.38;5.72;;;20.10;99.90;;;;;;5037433;28;20094;-58
2022/06/27 12:21:59;;;;;;;10.18;6.28;;;20.20;99.90;;;;;;5031470;28;20436;-58
2022/06/27 12:24:25;;;;;;;8.73;5.85;;;20.20;99.90;;;;;;5028928;28;20859;-57
2022/06/27 12:26:51;;;;;;;11.00;6.47;;;20.20;99.90;;;;;;5019890;28;20038;-57
2022/06/27 12:29:18;;;;;;;10.55;6.93;;;20.10;99.90;;;;;;5021546;28;20410;-58
2022/06/27 12:31:44;;;;;;;9.45;6.35;;;20.30;99.90;;;;;;5020290;28;20034;-58
2022/06/27 12:34:10;;;;;;;8.43;6.40;;;20.10;99.90;;;;;;5021207;28;20656;-58
2022/06/27 12:36:37;;;;;;;9.63;6.65;;;20.20;99.90;;;;;;5020780;28;20045;-58
2022/06/27 12:39:05;;;;;;;8.90;6.22;;;20.30;99.90;;;;;;5020014;28;20025;-58
2022/06/27 12:41:31;;;;;;;8.38;5.90;;;20.40;99.90;;;;;;5021297;28;20624;-58
2022/06/27 12:43:57;;;;;;;8.38;6.13;;;20.40;99.90;;;;;;5019498;28;20045;-57
2022/06/27 12:46:24;;;;;;;9.68;6.35;;;20.40;99.90;;;;;;5020942;28;20050;-57
2022/06/27 12:48:51;;;;;;;12.50;6.70;;;20.40;99.90;;;;;;5019769;28;20589;-58
2022/06/27 12:51:16;;;;;;;10.32;6.60;;;20.40;99.90;;;;;;5025707;28;20056;-58
2022/06/27 12:53:42;;;;;;;9.95;6.85;;;20.30;99.90;;;;;;5039563;28;20045;-58
2022/06/27 12:56:09;;;;;;;8.88;6.85;;;20.20;99.90;;;;;;5039388;28;20497;-57